Time;durP1;ratioP1;P1;durP2;ratioP2;P2;SDS_P1;SDS_P2;PMS_P1;PMS_P2;Temp;Humidity;BMP_temperature;BMP_pressure;BME280_temperature;BME280_humidity;BME280_pressure;Samples;Min_cycle;Max_cycle;Signal;HPM_P1;HPM_P2
2022/03/29 00:00:33;;;;;;;18.20;10.30;;;;;;;6.18;64.77;93662.81;5091570;28;20044;-42
2022/03/29 00:02:59;;;;;;;19.60;10.15;;;;;;;6.22;64.19;93655.03;5092637;28;20090;-43
2022/03/29 00:05:24;;;;;;;15.50;10.02;;;;;;;6.38;63.96;93653.34;5092580;28;20520;-43
2022/03/29 00:07:49;;;;;;;15.23;10.15;;;;;;;6.32;63.29;93647.94;5092249;28;20027;-43
2022/03/29 00:10:15;;;;;;;21.98;10.13;;;;;;;6.31;63.33;93653.94;5092142;28;20031;-43
2022/03/29 00:13:30;;;;;;;20.98;11.38;;;;;;;6.21;63.62;93647.31;5092442;28;20039;-42
2022/03/29 00:15:55;;;;;;;22.48;11.52;;;;;;;5.93;65.21;93642.16;5092210;28;20020;-43
2022/03/29 00:18:21;;;;;;;24.23;11.77;;;;;;;5.87;64.36;93628.50;5092294;28;20137;-43
2022/03/29 00:20:46;;;;;;;18.15;10.02;;;;;;;6.01;64.17;93649.28;5092012;28;20486;-43
2022/03/29 00:23:12;;;;;;;14.13;9.15;;;;;;;6.03;63.59;93638.53;5092223;28;20024;-43
2022/03/29 00:25:37;;;;;;;17.98;9.85;;;;;;;6.08;63.52;93637.75;5091827;28;20032;-44
2022/03/29 00:28:03;;;;;;;17.17;9.80;;;;;;;5.82;64.41;93636.75;5097506;28;20018;-43
2022/03/29 00:30:29;;;;;;;14.18;9.88;;;;;;;5.64;65.85;93638.16;5111988;28;20127;-42
2022/03/29 00:32:55;;;;;;;16.00;9.73;;;;;;;5.93;64.28;93629.16;5112207;28;20073;-42
2022/03/29 00:35:21;;;;;;;15.68;10.18;;;;;;;6.04;64.29;93626.31;5112298;28;20103;-42
2022/03/29 00:37:48;;;;;;;18.75;10.07;;;;;;;6.09;63.40;93625.50;5112018;28;20477;-42
2022/03/29 00:40:13;;;;;;;20.15;10.18;;;;;;;6.10;62.92;93618.03;5112339;28;20032;-43
2022/03/29 00:42:39;;;;;;;13.40;8.70;;;;;;;6.26;62.37;93619.09;5111899;28;20054;-42
2022/03/29 00:45:05;;;;;;;16.13;9.00;;;;;;;6.13;62.77;93601.28;5111873;28;20062;-43
2022/03/29 00:47:31;;;;;;;18.63;10.52;;;;;;;6.28;62.33;93616.59;5111782;28;20035;-43
2022/03/29 00:49:57;;;;;;;17.73;11.38;;;;;;;5.77;64.27;93599.19;5111791;27;20474;-43
2022/03/29 00:52:22;;;;;;;16.73;11.32;;;;;;;5.68;64.66;93599.50;5111919;28;20023;-42
2022/03/29 00:54:48;;;;;;;15.82;11.80;;;;;;;5.71;64.19;93595.75;5111989;28;20409;-42
2022/03/29 00:57:14;;;;;;;17.77;11.15;;;;;;;5.58;64.61;93598.38;5111944;28;20028;-43
2022/03/29 00:59:42;;;;;;;15.52;9.98;;;;;;;5.65;63.85;93601.28;5111353;28;20058;-43
2022/03/29 01:02:07;;;;;;;15.98;10.20;;;;;;;5.27;65.25;93602.38;5110748;28;20030;-44
2022/03/29 01:04:33;;;;;;;26.55;13.43;;;;;;;5.36;65.30;93602.06;5111439;28;20407;-42
2022/03/29 01:06:59;;;;;;;30.13;16.92;;;;;;;5.47;65.07;93603.97;5111795;28;20032;-43
2022/03/29 01:09:29;;;;;;;30.38;17.23;;;;;;;5.57;64.40;93594.88;5110323;28;20031;-42
2022/03/29 01:11:55;;;;;;;25.10;14.50;;;;;;;5.63;64.17;93589.38;5110885;28;20088;-42
2022/03/29 01:14:21;;;;;;;26.48;14.85;;;;;;;5.44;64.49;93586.56;5111333;28;20080;-42
2022/03/29 01:19:32;;;;;;;23.33;15.05;;;;;;;5.17;64.61;93588.31;5110569;28;20493;-42
2022/03/29 01:21:58;;;;;;;24.35;13.85;;;;;;;5.16;64.75;93588.78;5110074;28;20110;-42
2022/03/29 01:24:25;;;;;;;26.10;15.20;;;;;;;5.26;64.33;93577.00;5111232;28;20035;-42
2022/03/29 01:26:57;;;;;;;33.70;15.77;;;;;;;5.24;64.82;93581.53;5111117;28;20030;-42
2022/03/29 01:29:23;;;;;;;30.23;16.95;;;;;;;5.23;64.99;93574.56;5111132;28;20026;-42
2022/03/29 01:31:49;;;;;;;37.42;18.30;;;;;;;5.25;64.42;93566.56;5109735;28;20027;-43
2022/03/29 01:34:16;;;;;;;36.88;20.77;;;;;;;5.10;64.49;93552.53;5109838;28;20293;-42
2022/03/29 01:36:41;;;;;;;35.00;18.90;;;;;;;4.76;65.83;93554.06;5109756;28;20039;-43
2022/03/29 01:39:07;;;;;;;24.05;12.38;;;;;;;4.74;65.89;93554.56;5110984;28;20019;-42
2022/03/29 01:41:32;;;;;;;23.05;15.10;;;;;;;4.91;64.57;93552.44;5111148;28;20027;-42
2022/03/29 01:43:59;;;;;;;29.60;18.92;;;;;;;4.95;64.86;93543.94;5110908;28;20032;-42
2022/03/29 01:46:25;;;;;;;28.55;16.48;;;;;;;4.82;65.84;93552.00;5111143;27;20114;-42
2022/03/29 01:48:50;;;;;;;28.30;16.30;;;;;;;4.81;65.62;93543.06;5110794;28;20098;-42
2022/03/29 01:51:16;;;;;;;30.30;17.80;;;;;;;4.72;65.76;93543.38;5109507;28;20028;-42
2022/03/29 01:53:42;;;;;;;33.20;18.23;;;;;;;4.71;65.73;93522.00;5110999;28;20031;-42
2022/03/29 01:56:07;;;;;;;32.35;18.10;;;;;;;4.72;64.85;93537.19;5110701;28;20038;-42
2022/03/29 01:58:32;;;;;;;32.80;15.43;;;;;;;4.48;65.03;93530.34;5099932;27;20054;-42
2022/03/29 02:00:58;;;;;;;18.60;11.13;;;;;;;3.93;65.98;93505.34;5090128;28;20105;-42
2022/03/29 02:03:24;;;;;;;21.15;12.18;;;;;;;4.20;67.40;93531.81;5090615;28;20107;-42
2022/03/29 02:05:49;;;;;;;18.80;12.27;;;;;;;4.17;67.35;93530.06;5090246;28;20028;-42
2022/03/29 02:08:16;;;;;;;18.40;12.82;;;;;;;4.12;67.51;93526.13;5090569;28;20031;-42
2022/03/29 02:10:42;;;;;;;19.88;13.77;;;;;;;4.21;67.25;93522.34;5090410;28;20097;-43
2022/03/29 02:13:11;;;;;;;39.78;19.05;;;;;;;4.14;67.44;93520.13;5090223;28;20493;-42
2022/03/29 02:15:40;;;;;;;35.85;17.45;;;;;;;4.19;65.91;93520.13;5090516;28;20586;-42
2022/03/29 02:18:05;;;;;;;;;;;;;;;3.97;66.85;93505.81;5091012;28;20035;-42
2022/03/29 02:20:31;;;;;;;31.27;17.00;;;;;;;3.84;67.46;93500.94;5095306;28;19915;-43
2022/03/29 02:23:07;;;;;;;26.48;14.75;;;;;;;3.94;67.94;93501.38;5111915;28;20021;-42
2022/03/29 02:25:33;;;;;;;35.38;18.40;;;;;;;3.76;67.96;93492.53;5114970;28;20023;-42
2022/03/29 02:27:59;;;;;;;32.60;18.17;;;;;;;3.63;68.54;93499.78;5114612;28;20770;-42
2022/03/29 02:30:25;;;;;;;31.85;17.60;;;;;;;3.72;69.50;93494.03;5114741;28;20032;-42
2022/03/29 02:32:50;;;;;;;33.38;19.42;;;;;;;3.33;69.92;93502.38;5114786;28;20424;-42
2022/03/29 02:35:16;;;;;;;29.27;16.73;;;;;;;3.46;70.59;93488.19;5114404;28;20519;-42
2022/03/29 02:37:41;;;;;;;40.55;19.05;;;;;;;3.31;70.97;93498.66;5114676;28;20023;-42
2022/03/29 02:40:09;;;;;;;28.13;17.88;;;;;;;3.34;70.77;93505.84;5114654;28;20480;-42
2022/03/29 02:42:42;;;;;;;28.27;15.55;;;;;;;3.29;69.56;93498.41;5114288;28;20099;-42
2022/03/29 02:45:11;;;;;;;24.45;14.93;;;;;;;3.21;69.36;93498.19;5114537;28;20065;-42
2022/03/29 02:47:36;;;;;;;23.20;14.93;;;;;;;3.08;70.13;93492.50;5114195;28;20509;-42
2022/03/29 02:50:02;;;;;;;25.52;16.17;;;;;;;3.16;69.22;93492.75;5114152;28;20031;-43
2022/03/29 02:52:27;;;;;;;27.38;16.95;;;;;;;3.06;69.95;93484.81;5114353;28;20035;-42
2022/03/29 02:54:53;;;;;;;32.42;17.83;;;;;;;3.14;70.14;93476.13;5114418;28;20477;-42
2022/03/29 02:57:18;;;;;;;27.42;17.23;;;;;;;3.30;68.85;93480.78;5113986;28;20084;-42
2022/03/29 02:59:45;;;;;;;32.42;18.15;;;;;;;3.23;69.36;93475.88;5113787;28;20689;-42
2022/03/29 03:02:11;;;;;;;26.90;15.60;;;;;;;3.36;68.81;93481.50;5114246;28;20047;-42
2022/03/29 03:04:36;;;;;;;37.75;18.02;;;;;;;3.46;68.37;93480.00;5113999;28;20491;-43
2022/03/29 03:07:02;;;;;;;21.88;14.13;;;;;;;3.50;67.28;93475.03;5113810;28;20023;-42
2022/03/29 03:09:27;;;;;;;27.75;15.05;;;;;;;3.24;67.93;93480.06;5114059;28;20027;-42
2022/03/29 03:11:53;;;;;;;25.58;13.73;;;;;;;3.17;68.17;93481.31;5113947;28;20104;-42
2022/03/29 03:14:18;;;;;;;22.38;13.20;;;;;;;3.13;68.42;93482.81;5113711;28;20019;-42
2022/03/29 03:16:44;;;;;;;22.25;12.82;;;;;;;3.06;68.75;93479.38;5108758;28;20485;-42
2022/03/29 03:19:09;;;;;;;22.55;13.68;;;;;;;3.14;68.79;93478.88;5093464;28;20028;-42
2022/03/29 03:21:35;;;;;;;24.70;13.75;;;;;;;3.21;68.68;93470.16;5093502;28;20142;-42
2022/03/29 03:24:00;;;;;;;24.05;13.73;;;;;;;3.38;67.32;93477.03;5093069;28;20024;-42
2022/03/29 03:26:26;;;;;;;21.88;14.45;;;;;;;3.38;66.90;93474.31;5093086;28;20024;-43
2022/03/29 03:28:51;;;;;;;25.33;14.15;;;;;;;3.21;67.81;93470.16;5093112;28;20024;-42
2022/03/29 03:31:17;;;;;;;23.35;13.00;;;;;;;3.00;68.29;93469.72;5092951;28;20035;-42
2022/03/29 03:33:42;;;;;;;18.13;11.65;;;;;;;2.96;67.79;93466.50;5092929;28;20059;-42
2022/03/29 03:36:08;;;;;;;20.65;11.75;;;;;;;2.89;68.40;93475.94;5092383;28;20031;-42
2022/03/29 03:38:33;;;;;;;17.52;11.23;;;;;;;2.72;68.52;93467.03;5093166;28;20020;-42
2022/03/29 03:40:59;;;;;;;21.15;11.93;;;;;;;2.73;68.42;93470.53;5092745;28;20028;-42
2022/03/29 03:43:24;;;;;;;22.67;13.57;;;;;;;2.77;68.78;93471.72;5092790;28;20120;-42
2022/03/29 03:45:50;;;;;;;18.50;12.93;;;;;;;2.64;69.15;93465.31;5092745;28;20031;-42
2022/03/29 03:48:15;;;;;;;19.30;12.45;;;;;;;2.60;69.80;93460.09;5092673;28;20039;-42
2022/03/29 03:50:41;;;;;;;19.10;12.27;;;;;;;2.72;68.64;93464.31;5092547;28;20024;-42
2022/03/29 03:53:07;;;;;;;18.75;11.07;;;;;;;2.65;68.59;93461.34;5091457;28;20029;-42
2022/03/29 03:55:32;;;;;;;18.30;11.02;;;;;;;2.80;68.48;93457.09;5092832;28;20039;-42
2022/03/29 03:57:58;;;;;;;18.63;11.15;;;;;;;2.95;67.86;93470.47;5098008;28;20023;-42
2022/03/29 04:00:24;;;;;;;22.55;12.77;;;;;;;2.64;68.34;93463.31;5112610;28;20043;-42
2022/03/29 04:02:50;;;;;;;34.10;13.55;;;;;;;2.76;68.08;93467.53;5113076;27;20440;-42
2022/03/29 04:05:16;;;;;;;25.20;12.65;;;;;;;2.65;68.76;93464.81;5112713;28;20028;-42
2022/03/29 04:07:42;;;;;;;26.45;12.63;;;;;;;2.49;69.43;93446.47;5112971;28;20043;-41
2022/03/29 04:10:08;;;;;;;29.23;13.23;;;;;;;2.62;69.18;93460.34;5112603;28;20031;-42
2022/03/29 04:12:34;;;;;;;20.40;11.85;;;;;;;2.65;69.18;93472.25;5110927;28;20387;-42
2022/03/29 04:15:00;;;;;;;20.02;12.68;;;;;;;2.82;67.90;93476.44;5092210;28;20024;-42
2022/03/29 04:17:25;;;;;;;30.02;13.35;;;;;;;2.59;68.87;93471.50;5092071;28;20059;-42
2022/03/29 04:19:50;;;;;;;29.98;15.38;;;;;;;2.56;69.37;93472.50;5092036;28;20028;-42
2022/03/29 04:22:18;;;;;;;33.55;20.25;;;;;;;2.38;68.91;93473.75;5092331;28;20023;-43
2022/03/29 04:24:44;;;;;;;54.22;33.40;;;;;;;2.09;70.14;93477.69;5092024;28;20024;-43
2022/03/29 04:27:10;;;;;;;42.85;24.52;;;;;;;2.33;69.77;93476.47;5092207;28;20027;-43
2022/03/29 04:29:35;;;;;;;48.53;29.35;;;;;;;2.39;68.97;93472.50;5091879;28;20028;-42
2022/03/29 04:32:01;;;;;;;32.72;20.23;;;;;;;2.45;70.12;93472.53;5091968;28;20031;-42
2022/03/29 04:34:26;;;;;;;37.03;19.65;;;;;;;2.62;68.34;93473.25;5092118;28;20024;-42
2022/03/29 04:36:52;;;;;;;36.70;22.33;;;;;;;2.57;69.22;93474.75;5091968;28;20516;-43
2022/03/29 04:39:17;;;;;;;38.50;23.40;;;;;;;2.48;69.00;93449.72;5091945;28;20500;-43
2022/03/29 04:41:43;;;;;;;34.47;21.45;;;;;;;2.73;68.42;93479.41;5090375;28;20103;-42
2022/03/29 04:44:08;;;;;;;40.15;25.48;;;;;;;2.40;69.49;93470.53;5091937;28;20034;-43
2022/03/29 04:46:33;;;;;;;79.60;28.60;;;;;;;2.49;70.35;93481.91;5091546;28;20023;-42
2022/03/29 04:48:59;;;;;;;53.28;28.83;;;;;;;2.43;70.10;93475.72;5091537;28;20032;-43
2022/03/29 04:51:24;;;;;;;68.03;32.97;;;;;;;2.57;70.72;93469.28;5091426;28;20032;-43
2022/03/29 04:53:50;;;;;;;59.53;32.88;;;;;;;2.56;70.53;93478.69;5091670;28;20024;-43
2022/03/29 04:56:15;;;;;;;52.03;29.17;;;;;;;2.73;70.56;93476.69;5091633;28;20412;-43
2022/03/29 04:58:41;;;;;;;58.25;28.70;;;;;;;2.91;69.25;93478.91;5102559;28;20110;-43
2022/03/29 05:01:06;;;;;;;48.60;25.95;;;;;;;2.98;69.42;93480.38;5111539;28;20036;-42
2022/03/29 05:03:32;;;;;;;45.45;26.08;;;;;;;2.96;69.15;93482.88;5111802;28;20023;-43
2022/03/29 05:05:58;;;;;;;51.55;28.23;;;;;;;3.05;69.35;93480.59;5111518;28;20024;-42
2022/03/29 05:08:23;;;;;;;47.35;24.92;;;;;;;3.32;67.77;93475.56;5111755;28;20030;-42
2022/03/29 05:10:49;;;;;;;45.72;24.17;;;;;;;3.37;67.88;93472.09;5092910;28;20028;-43
2022/03/29 05:13:17;;;;;;;43.28;26.27;;;;;;;3.49;67.33;93471.53;5091351;28;20708;-43
2022/03/29 05:15:44;;;;;;;84.88;44.58;;;;;;;3.57;67.42;93474.50;5091330;28;20024;-42
2022/03/29 05:18:10;;;;;;;122.28;48.63;;;;;;;3.68;67.11;93474.47;5091228;28;20039;-42
2022/03/29 05:20:35;;;;;;;96.88;46.30;;;;;;;3.88;66.25;93470.63;5091282;28;20032;-43
2022/03/29 05:23:02;;;;;;;81.82;37.63;;;;;;;3.96;65.50;93474.31;5091125;28;20055;-43
2022/03/29 05:25:28;;;;;;;81.40;40.67;;;;;;;3.95;66.72;93468.09;5090855;28;20174;-43
2022/03/29 05:27:55;;;;;;;156.65;76.30;;;;;;;4.12;66.61;93468.75;5090812;28;20028;-43
2022/03/29 05:30:21;;;;;;;74.78;40.33;;;;;;;3.92;67.43;93471.09;5090651;28;20048;-43
2022/03/29 05:32:47;;;;;;;120.18;60.13;;;;;;;4.11;67.43;93467.28;5090732;28;20028;-42
2022/03/29 05:35:13;;;;;;;86.75;46.08;;;;;;;4.28;67.82;93465.16;5090954;28;20027;-43
2022/03/29 05:37:41;;;;;;;77.57;41.55;;;;;;;4.56;67.28;93462.97;5090620;28;20051;-43
2022/03/29 05:40:08;;;;;;;109.45;56.75;;;;;;;4.81;66.29;93463.00;5090926;28;20466;-43
2022/03/29 05:42:38;;;;;;;85.68;46.90;;;;;;;4.99;65.83;93463.06;5090805;28;20481;-43
2022/03/29 05:45:04;;;;;;;100.47;51.97;;;;;;;5.45;65.61;93472.31;5091156;28;20036;-43
2022/03/29 05:50:13;;;;;;;92.65;51.17;;;;;;;6.51;63.19;93455.97;5090706;28;20046;-43
2022/03/29 05:52:39;;;;;;;85.50;45.20;;;;;;;7.06;61.64;93455.03;5090727;28;20436;-43
2022/03/29 05:55:04;;;;;;;72.00;43.33;;;;;;;7.48;60.07;93456.78;5090669;28;20409;-42
2022/03/29 05:57:30;;;;;;;81.85;46.10;;;;;;;7.76;58.76;93447.25;5091476;28;20031;-44
2022/03/29 05:59:56;;;;;;;55.55;32.38;;;;;;;8.05;57.91;93448.91;5110697;28;20135;-44
2022/03/29 06:02:24;;;;;;;35.38;21.95;;;;;;;8.29;57.21;93451.41;5110828;28;20416;-45
2022/03/29 06:04:50;;;;;;;84.60;30.05;;;;;;;8.30;57.14;93450.84;5110934;28;20490;-43
2022/03/29 06:07:15;;;;;;;70.00;37.70;;;;;;;8.68;55.88;93448.50;5089273;28;20036;-45
2022/03/29 06:09:41;;;;;;;65.65;34.83;;;;;;;9.04;54.53;93452.13;5090218;28;20032;-44
2022/03/29 06:12:06;;;;;;;51.47;31.48;;;;;;;9.49;53.92;93448.19;5090245;28;20028;-43
2022/03/29 06:14:32;;;;;;;50.55;28.92;;;;;;;9.94;51.85;93445.69;5090511;28;20028;-43
2022/03/29 06:16:59;;;;;;;50.65;29.35;;;;;;;10.36;51.57;93430.44;5090556;28;20024;-44
2022/03/29 06:19:25;;;;;;;40.80;26.80;;;;;;;11.06;49.01;93439.03;5090450;28;20470;-44
2022/03/29 06:21:50;;;;;;;40.15;25.75;;;;;;;11.68;49.35;93441.22;5090205;28;20016;-43
2022/03/29 06:24:16;;;;;;;43.92;29.35;;;;;;;12.23;47.48;93437.72;5090126;28;20031;-43
2022/03/29 06:26:41;;;;;;;31.83;21.95;;;;;;;12.66;46.69;93442.88;5090342;28;20028;-44
2022/03/29 06:29:08;;;;;;;44.83;21.30;;;;;;;13.15;45.35;93439.44;5090443;28;20569;-43
2022/03/29 06:31:34;;;;;;;56.10;33.60;;;;;;;13.51;45.38;93426.56;5089893;28;20063;-43
2022/03/29 06:33:59;;;;;;;127.38;68.78;;;;;;;13.83;43.71;93433.28;5090375;28;20043;-44
2022/03/29 06:36:25;;;;;;;89.47;53.53;;;;;;;14.26;43.41;93435.41;5090256;28;20024;-46
2022/03/29 06:38:51;;;;;;;68.85;41.20;;;;;;;14.55;42.29;93433.59;5089945;28;20028;-44
2022/03/29 06:41:16;;;;;;;58.90;36.53;;;;;;;14.78;41.52;93436.81;5089901;28;20077;-44
2022/03/29 06:43:42;;;;;;;59.30;33.42;;;;;;;15.16;41.07;93428.66;5090207;28;20035;-44
2022/03/29 06:46:09;;;;;;;38.58;27.63;;;;;;;15.46;40.17;93421.19;5090257;28;20571;-44
2022/03/29 06:48:41;;;;;;;40.25;25.73;;;;;;;15.91;39.89;93423.19;5090135;28;20023;-44
2022/03/29 06:51:07;;;;;;;43.38;27.80;;;;;;;15.96;38.65;93410.28;5090174;28;20028;-46
2022/03/29 06:53:33;;;;;;;45.25;26.65;;;;;;;16.37;38.15;93420.97;5089810;28;20481;-45
2022/03/29 06:55:59;;;;;;;44.00;29.52;;;;;;;16.34;37.76;93411.03;5088618;28;20078;-46
2022/03/29 06:58:24;;;;;;;44.60;31.08;;;;;;;16.13;39.09;93413.66;5099053;28;20024;-43
2022/03/29 07:00:50;;;;;;;29.20;19.27;;;;;;;16.36;38.89;93413.22;5110064;28;20044;-44
2022/03/29 07:03:15;;;;;;;98.82;21.48;;;;;;;17.06;38.92;93414.72;5092113;28;20036;-43
2022/03/29 07:05:42;;;;;;;26.25;16.55;;;;;;;17.63;37.34;93414.50;5090042;28;20016;-43
2022/03/29 07:08:10;;;;;;;25.75;17.02;;;;;;;18.09;36.10;93414.78;5090024;28;20027;-44
2022/03/29 07:13:21;;;;;;;67.63;23.15;;;;;;;19.50;34.29;93411.84;5093644;28;20097;-44
2022/03/29 07:15:48;;;;;;;36.50;24.83;;;;;;;20.32;32.27;93399.94;5093656;28;20020;-45
2022/03/29 07:18:14;;;;;;;40.08;23.13;;;;;;;21.16;30.63;93400.41;5093187;28;20489;-45
2022/03/29 07:20:40;;;;;;;23.92;17.65;;;;;;;21.75;28.97;93384.56;5093229;28;20031;-45
2022/03/29 07:23:06;;;;;;;18.27;12.98;;;;;;;22.68;27.33;93400.53;5093476;28;20060;-44
2022/03/29 07:25:32;;;;;;;15.57;12.73;;;;;;;23.29;26.77;93399.22;5093122;28;20542;-46
2022/03/29 07:27:58;;;;;;;19.70;12.40;;;;;;;23.62;25.47;93407.09;5093191;28;20413;-46
2022/03/29 07:30:24;;;;;;;50.13;14.93;;;;;;;23.94;24.10;93395.16;5093224;28;20389;-44
2022/03/29 07:32:51;;;;;;;17.67;9.32;;;;;;;22.70;25.31;93387.28;5093008;28;20043;-45
2022/03/29 07:35:18;;;;;;;15.48;8.90;;;;;;;23.01;25.52;93390.19;5093259;28;20027;-43
2022/03/29 07:37:44;;;;;;;13.75;7.38;;;;;;;22.03;24.96;93386.03;5093125;28;20106;-44
2022/03/29 07:40:11;;;;;;;11.80;6.93;;;;;;;22.15;24.68;93392.31;5093155;28;20481;-45
2022/03/29 07:42:37;;;;;;;12.02;7.82;;;;;;;21.87;25.41;93377.50;5092787;28;20023;-45
2022/03/29 07:45:05;;;;;;;13.70;8.40;;;;;;;23.11;25.18;93387.84;5092773;28;20035;-45
2022/03/29 07:47:31;;;;;;;10.70;7.65;;;;;;;23.84;23.36;93377.06;5092979;28;20024;-45
2022/03/29 07:49:57;;;;;;;12.68;7.90;;;;;;;24.04;23.66;93392.78;5092660;28;20493;-45
2022/03/29 07:52:22;;;;;;;11.05;5.95;;;;;;;24.28;22.73;93383.94;5092424;28;20034;-43
2022/03/29 07:54:47;;;;;;;11.13;6.25;;;;;;;24.92;22.41;93380.22;5092894;28;20622;-44
2022/03/29 07:57:13;;;;;;;18.08;6.45;;;;;;;25.30;21.97;93390.19;5092483;28;20069;-43
2022/03/29 07:59:38;;;;;;;10.55;6.00;;;;;;;25.88;20.75;93374.75;5110889;28;20066;-44
2022/03/29 08:02:05;;;;;;;13.57;7.10;;;;;;;26.39;20.64;93377.25;5112801;27;20020;-46
2022/03/29 08:04:31;;;;;;;14.57;6.65;;;;;;;26.76;19.98;93374.28;5113058;28;20019;-45
2022/03/29 08:06:56;;;;;;;13.57;6.97;;;;;;;26.17;19.81;93377.22;5112703;28;20416;-43
2022/03/29 08:09:22;;;;;;;31.70;8.35;;;;;;;26.15;20.77;93374.31;5112861;28;20023;-43
2022/03/29 08:11:48;;;;;;;18.17;6.82;;;;;;;26.52;19.90;93368.50;5112929;28;20028;-43
2022/03/29 08:14:14;;;;;;;9.82;6.13;;;;;;;27.11;20.11;93373.28;5112846;28;20027;-46
2022/03/29 08:16:41;;;;;;;13.23;6.20;;;;;;;27.04;18.99;93370.25;5112826;28;20020;-45
2022/03/29 08:19:06;;;;;;;12.07;6.38;;;;;;;26.65;18.55;93375.31;5112753;28;20031;-45
2022/03/29 08:21:50;;;;;;;14.23;5.28;;;;;;;27.40;18.28;93359.34;5112382;28;20020;-43
2022/03/29 08:24:20;;;;;;;17.23;5.20;;;;;;;26.90;18.49;93354.91;5112680;27;20420;-44
2022/03/29 08:26:46;;;;;;;12.88;5.40;;;;;;;26.87;18.22;93354.13;5112690;28;20027;-43
2022/03/29 08:29:12;;;;;;;15.85;6.65;;;;;;;26.69;19.25;93355.59;5112639;28;20403;-43
2022/03/29 08:31:38;;;;;;;10.82;6.68;;;;;;;27.29;18.00;93354.00;5112204;28;20595;-46
2022/03/29 08:34:04;;;;;;;15.68;6.53;;;;;;;28.10;18.77;93343.66;5112210;28;20614;-44
2022/03/29 08:36:30;;;;;;;10.15;6.10;;;;;;;28.63;17.51;93334.41;5112128;28;20096;-45
2022/03/29 08:38:56;;;;;;;13.45;5.43;;;;;;;29.01;16.64;93341.03;5112446;28;20031;-45
2022/03/29 08:41:21;;;;;;;13.32;6.30;;;;;;;28.51;16.93;93334.06;5112324;28;20031;-43
2022/03/29 08:43:47;;;;;;;9.93;5.38;;;;;;;28.44;16.62;93316.16;5110871;28;20139;-44
2022/03/29 08:46:13;;;;;;;8.88;5.85;;;;;;;28.69;17.26;93334.56;5111909;28;20114;-44
2022/03/29 08:48:40;;;;;;;12.38;5.47;;;;;;;28.90;17.02;93327.97;5111913;28;20031;-43
2022/03/29 08:51:06;;;;;;;8.60;5.20;;;;;;;29.35;16.61;93323.31;5110856;28;20428;-43
2022/03/29 08:53:31;;;;;;;9.93;6.15;;;;;;;29.09;16.00;93318.47;5110606;28;20061;-44
2022/03/29 08:55:57;;;;;;;12.05;5.45;;;;;;;28.56;16.89;93310.06;5092224;28;20032;-45
2022/03/29 08:58:23;;;;;;;16.27;5.63;;;;;;;28.76;16.87;93318.38;5091291;28;20023;-43
2022/03/29 09:00:49;;;;;;;16.50;7.15;;;;;;;28.44;17.09;93321.84;5091256;28;20177;-44
2022/03/29 09:03:17;;;;;;;11.82;5.55;;;;;;;28.17;16.38;93314.03;5091547;28;20469;-46
2022/03/29 09:05:43;;;;;;;18.55;5.30;;;;;;;28.52;17.17;93293.63;5091253;28;20111;-46
2022/03/29 09:08:09;;;;;;;11.18;6.30;;;;;;;28.92;15.69;93313.06;5091475;28;20027;-46
2022/03/29 09:10:44;;;;;;;13.30;5.40;;;;;;;28.02;16.82;93309.38;5091287;28;20444;-47
2022/03/29 09:13:27;;;;;;;15.27;5.97;;;;;;;28.25;16.33;93287.97;5091402;28;20043;-45
2022/03/29 09:15:58;;;;;;;16.17;5.88;;;;;;;27.97;16.21;93301.38;5091320;28;20028;-44
2022/03/29 09:18:24;;;;;;;14.73;5.88;;;;;;;28.42;16.24;93296.22;5090049;28;20020;-46
2022/03/29 09:21:11;;;;;;;15.23;5.45;;;;;;;28.88;16.51;93290.97;5090947;28;20030;-44
2022/03/29 09:23:37;;;;;;;15.88;7.30;;;;;;;29.43;15.78;93287.28;5090803;28;20027;-45
2022/03/29 09:26:04;;;;;;;12.82;5.30;;;;;;;29.39;15.94;93264.41;5090789;28;20031;-45
2022/03/29 09:28:38;;;;;;;11.88;5.82;;;;;;;29.84;14.79;93283.16;5091120;28;20053;-45
2022/03/29 09:31:22;;;;;;;14.88;5.82;;;;;;;29.70;15.47;93262.91;5091049;28;20032;-46
2022/03/29 09:33:48;;;;;;;13.65;5.03;;;;;;;29.48;14.87;93251.06;5090045;28;20489;-44
2022/03/29 09:36:18;;;;;;;12.40;5.28;;;;;;;29.77;14.98;93270.94;5090652;28;20035;-46
2022/03/29 09:38:46;;;;;;;13.43;5.18;;;;;;;30.13;14.65;93262.34;5090591;28;20544;-46
2022/03/29 09:41:29;;;;;;;15.07;5.70;;;;;;;30.26;14.75;93260.41;5090671;28;20105;-44
2022/03/29 09:44:07;;;;;;;24.52;6.22;;;;;;;29.83;14.51;93253.97;5090550;28;20032;-45
2022/03/29 09:46:54;;;;;;;23.50;6.07;;;;;;;30.37;14.18;93262.06;5090824;28;20028;-45
2022/03/29 09:49:20;;;;;;;17.23;5.55;;;;;;;30.43;13.61;93225.16;5090840;28;20028;-46
2022/03/29 09:51:46;;;;;;;83.05;9.15;;;;;;;29.51;15.06;93250.44;5106024;28;20123;-45
2022/03/29 09:54:12;;;;;;;17.05;6.72;;;;;;;29.70;14.94;93240.13;5110829;28;20024;-45
2022/03/29 09:56:37;;;;;;;26.35;9.27;;;;;;;30.20;14.96;93232.56;5111070;28;20110;-45
2022/03/29 09:59:11;;;;;;;13.63;6.15;;;;;;;29.94;14.32;93235.66;5109252;28;20424;-45
2022/03/29 10:01:51;;;;;;;17.65;6.22;;;;;;;30.42;14.51;93235.09;5110527;28;20131;-45
2022/03/29 10:04:19;;;;;;;24.92;6.07;;;;;;;30.42;14.25;93224.44;5111031;28;20436;-45
2022/03/29 10:06:48;;;;;;;11.68;6.95;;;;;;;30.32;13.73;93227.09;5110601;28;20032;-46
2022/03/29 10:09:29;;;;;;;9.32;5.75;;;;;;;29.98;14.37;93221.50;5110890;28;20038;-45
2022/03/29 10:11:57;;;;;;;18.98;7.32;;;;;;;30.10;14.51;93223.13;5110578;28;20099;-43
2022/03/29 10:14:25;;;;;;;10.90;6.40;;;;;;;30.13;14.42;93216.78;5110506;28;20031;-44
2022/03/29 10:16:52;;;;;;;16.45;7.07;;;;;;;29.41;15.27;93210.41;5110913;28;20035;-46
2022/03/29 10:19:18;;;;;;;15.07;6.72;;;;;;;29.33;15.28;93206.66;5110837;28;20031;-47
2022/03/29 10:21:45;;;;;;;26.58;6.30;;;;;;;28.86;15.17;93214.19;5110485;28;20099;-43
2022/03/29 10:24:14;;;;;;;14.07;5.25;;;;;;;29.32;15.12;93211.66;5110808;28;20054;-43
2022/03/29 10:26:42;;;;;;;19.20;7.20;;;;;;;29.50;15.16;93203.47;5109589;28;20039;-44
2022/03/29 10:29:08;;;;;;;12.98;5.60;;;;;;;29.44;14.95;93194.09;5109571;28;20023;-46
2022/03/29 10:31:39;;;;;;;14.48;6.28;;;;;;;29.40;15.19;93197.59;5110275;28;20027;-45
2022/03/29 10:34:27;;;;;;;11.85;5.40;;;;;;;29.56;15.17;93194.34;5110424;28;20024;-47
2022/03/29 10:37:17;;;;;;;17.95;5.38;;;;;;;29.77;15.26;93196.94;5110667;28;20062;-45
2022/03/29 10:39:48;;;;;;;14.45;4.72;;;;;;;29.55;14.44;93192.91;5110722;28;20028;-44
2022/03/29 10:42:29;;;;;;;15.18;4.85;;;;;;;29.66;13.73;93188.84;5110625;28;20435;-46
2022/03/29 10:45:00;;;;;;;17.50;5.78;;;;;;;29.52;13.99;93180.06;5113330;28;20027;-45
2022/03/29 10:47:27;;;;;;;18.95;6.35;;;;;;;29.70;14.69;93169.72;5114120;28;20046;-45
2022/03/29 10:49:52;;;;;;;16.42;5.38;;;;;;;27.99;14.54;93188.66;5114510;28;20034;-44
2022/03/29 10:52:21;;;;;;;17.58;5.30;;;;;;;26.79;16.03;93178.22;5114107;28;20028;-45
2022/03/29 10:54:48;;;;;;;9.70;4.75;;;;;;;27.40;15.84;93157.28;5114156;27;20062;-47
2022/03/29 10:57:14;;;;;;;18.08;6.00;;;;;;;27.99;15.97;93168.06;5112868;28;20037;-44
2022/03/29 10:59:39;;;;;;;21.92;5.82;;;;;;;28.04;15.20;93166.78;5093762;28;20068;-45
2022/03/29 11:02:21;;;;;;;17.52;6.32;;;;;;;28.68;15.35;93161.91;5093875;28;20036;-46
2022/03/29 11:05:09;;;;;;;15.15;5.78;;;;;;;28.75;15.32;93158.53;5093936;28;20027;-44
2022/03/29 11:07:48;;;;;;;20.15;7.05;;;;;;;28.93;14.46;93138.31;5093781;28;20035;-45
2022/03/29 11:10:13;;;;;;;18.42;5.85;;;;;;;29.24;14.57;93143.22;5093483;28;20028;-47
2022/03/29 11:12:51;;;;;;;12.07;5.30;;;;;;;29.16;14.82;93137.38;5093381;28;20112;-43
2022/03/29 11:15:32;;;;;;;23.35;5.05;;;;;;;29.41;14.55;93139.28;5093361;28;20493;-46
2022/03/29 11:17:57;;;;;;;10.13;4.70;;;;;;;29.19;14.40;93124.66;5093366;28;20568;-46
2022/03/29 11:20:34;;;;;;;16.88;4.38;;;;;;;28.54;15.27;93134.59;5092322;28;20107;-44
2022/03/29 11:23:04;;;;;;;15.18;5.63;;;;;;;28.42;15.58;93137.19;5093273;28;20024;-44
2022/03/29 11:25:40;;;;;;;16.13;4.47;;;;;;;28.50;14.62;93119.63;5093447;28;20063;-45
2022/03/29 11:28:11;;;;;;;17.00;5.20;;;;;;;28.30;15.37;93119.16;5093469;28;20024;-44
2022/03/29 11:30:37;;;;;;;14.88;4.57;;;;;;;28.32;15.30;93122.75;5092903;28;20548;-45
2022/03/29 11:33:07;;;;;;;11.50;4.55;;;;;;;27.98;15.45;93118.41;5093325;28;20016;-44